ORBI/SDA METAR and TAF weather

Enter ICAO airport designator
Station Type Date Time Source
ORBI METAR 2022/11/30 11:00 UTC NOAA

ORBI 301100Z 24004KT 200V300 9999 FEW040 22/15 Q1014 NOSIG


Station Type Date Time Source
ORBI Decoded METAR 2022/11/30 11:00 UTC NOAA

Station name not available
Nov 30, 2022 - 06:00 AM EST / 2022.11.30 1100 UTC
Wind: from the WSW (240 degrees) at 5 MPH (4 KT) (direction variable):0
Visibility: greater than 7 mile(s):0
Sky conditions: mostly clear
Temperature: 71 F (22 C)
Dew Point: 59 F (15 C)
Relative Humidity: 64%
Pressure (altimeter): 29.94 in. Hg (1014 hPa)
ob: ORBI 301100Z 24004KT 200V300 9999 FEW040 22/15 Q1014 NOSIG
cycle: 11

Station Type Date Time Source
ORBI TAF 2022/11/30 12:39 UTC NOAA

TAF ORBI 301000Z 3012/0112 17005KT 8000 NSC
BECMG 3015/3017 32006KT
TEMPO 0102/0107 2500 BR

Example: see airport list